createdAt,value
2017-11-13T00:00:16.280Z,93.90
2017-11-13T00:02:44.047Z,93.80
2017-11-13T00:05:11.773Z,94.00
2017-11-13T00:07:39.460Z,94.00
2017-11-13T00:10:07.436Z,94.00
2017-11-13T00:12:35.300Z,94.00
2017-11-13T00:15:03.100Z,94.00
2017-11-13T00:17:30.962Z,94.10
2017-11-13T00:19:58.911Z,94.00
2017-11-13T00:22:28.511Z,93.90
2017-11-13T00:24:56.272Z,93.80
2017-11-13T00:27:38.445Z,93.70
2017-11-13T00:30:06.132Z,93.80
2017-11-13T00:32:33.884Z,93.80
2017-11-13T00:35:01.843Z,93.80
2017-11-13T00:37:30.845Z,93.90
2017-11-13T00:39:58.668Z,93.80
2017-11-13T00:42:26.339Z,93.80
2017-11-13T00:44:54.065Z,93.70
2017-11-13T00:47:21.799Z,93.60
2017-11-13T00:49:49.655Z,93.60
2017-11-13T00:52:18.116Z,93.40
2017-11-13T00:54:45.728Z,93.30
2017-11-13T00:57:13.426Z,93.30
2017-11-13T00:59:41.050Z,93.40
2017-11-13T01:02:08.742Z,93.50
2017-11-13T01:04:36.365Z,93.50
2017-11-13T01:07:04.204Z,93.70
2017-11-13T01:09:32.714Z,93.70
2017-11-13T01:12:00.650Z,93.60
2017-11-13T01:14:28.418Z,93.60
2017-11-13T01:16:57.012Z,93.70
2017-11-13T01:19:24.854Z,93.60
2017-11-13T01:21:52.614Z,93.50
2017-11-13T01:24:20.351Z,94.00
2017-11-13T01:26:48.126Z,93.70
2017-11-13T01:29:15.825Z,93.70
2017-11-13T01:31:43.559Z,93.70
2017-11-13T01:34:11.190Z,93.90
2017-11-13T01:36:38.865Z,93.90
2017-11-13T01:39:06.546Z,93.80
2017-11-13T01:41:34.463Z,93.80
2017-11-13T01:44:02.167Z,94.00
2017-11-13T01:46:29.774Z,94.00
2017-11-13T01:48:57.448Z,94.00
2017-11-13T01:51:25.169Z,93.80
2017-11-13T01:53:52.879Z,93.90
2017-11-13T01:56:20.571Z,93.90
2017-11-13T01:58:48.308Z,93.90
2017-11-13T02:01:15.981Z,93.90
2017-11-13T02:03:43.734Z,93.90
2017-11-13T02:06:11.523Z,93.90
2017-11-13T02:08:39.279Z,94.00
2017-11-13T02:11:06.911Z,94.00
2017-11-13T02:13:34.713Z,94.10
2017-11-13T02:16:02.399Z,94.20
2017-11-13T02:18:30.041Z,94.20
2017-11-13T02:20:58.480Z,94.10
2017-11-13T02:23:26.109Z,94.10
2017-11-13T02:25:53.839Z,94.10
2017-11-13T02:28:21.586Z,94.30
2017-11-13T02:30:49.273Z,94.40
2017-11-13T02:33:16.909Z,94.20
2017-11-13T02:35:44.551Z,94.30
2017-11-13T02:38:12.943Z,94.40
2017-11-13T02:40:40.710Z,94.30
2017-11-13T02:43:08.436Z,94.20
2017-11-13T02:45:36.095Z,94.40
2017-11-13T02:48:04.642Z,94.40
2017-11-13T02:50:32.246Z,94.30
2017-11-13T02:53:00.001Z,94.30
2017-11-13T02:55:27.671Z,94.30
2017-11-13T02:57:55.363Z,94.30
2017-11-13T03:00:23.358Z,93.90
2017-11-13T03:02:51.125Z,94.10
2017-11-13T03:05:18.839Z,94.00
2017-11-13T03:07:46.591Z,94.00
2017-11-13T03:10:15.086Z,94.20
2017-11-13T03:12:42.734Z,94.10
2017-11-13T03:15:10.395Z,94.20
2017-11-13T03:17:38.839Z,94.60
2017-11-13T03:20:06.430Z,94.30
2017-11-13T03:22:34.044Z,94.00
2017-11-13T03:25:01.712Z,94.00
2017-11-13T03:27:29.413Z,94.20
2017-11-13T03:29:57.053Z,94.30
2017-11-13T03:32:24.687Z,94.10
2017-11-13T03:34:52.435Z,94.30
2017-11-13T03:37:20.096Z,94.20
2017-11-13T03:39:48.699Z,94.00
2017-11-13T03:42:16.398Z,94.00
2017-11-13T03:44:44.073Z,93.90
2017-11-13T03:47:12.437Z,93.90
2017-11-13T03:49:40.087Z,93.50
2017-11-13T03:52:07.709Z,93.50
2017-11-13T03:54:35.404Z,93.70
2017-11-13T03:57:03.010Z,93.60
2017-11-13T03:59:30.706Z,93.60
2017-11-13T04:01:58.369Z,93.80
2017-11-13T04:04:26.041Z,93.80
2017-11-13T04:06:53.812Z,94.00
2017-11-13T04:09:21.874Z,93.70
2017-11-13T04:11:49.511Z,93.80
2017-11-13T04:14:17.594Z,93.80
2017-11-13T04:16:45.305Z,94.00
2017-11-13T04:19:13.066Z,94.00
2017-11-13T04:21:40.764Z,94.00
2017-11-13T04:24:09.401Z,94.00
2017-11-13T04:26:37.163Z,93.90
2017-11-13T04:29:05.644Z,94.00
2017-11-13T04:31:34.150Z,94.00
2017-11-13T04:34:01.804Z,94.10
2017-11-13T04:36:30.289Z,94.30
2017-11-13T04:38:58.077Z,94.30
2017-11-13T04:41:25.711Z,94.20
2017-11-13T04:43:54.186Z,94.40
2017-11-13T04:46:21.859Z,94.40
2017-11-13T04:48:49.660Z,94.20
2017-11-13T04:51:17.371Z,94.30
2017-11-13T04:53:45.145Z,94.20
2017-11-13T04:56:12.769Z,94.30
2017-11-13T04:58:40.500Z,94.30
2017-11-13T05:01:08.200Z,94.30
2017-11-13T05:03:35.943Z,94.30
2017-11-13T05:06:03.649Z,94.20
2017-11-13T05:08:31.481Z,94.50
2017-11-13T05:10:59.628Z,94.80
2017-11-13T05:13:27.371Z,94.60
2017-11-13T05:15:55.069Z,94.50
2017-11-13T05:18:22.819Z,94.50
2017-11-13T05:20:50.540Z,94.40
2017-11-13T05:23:18.474Z,94.30
2017-11-13T05:25:47.004Z,94.20
2017-11-13T05:28:14.604Z,94.40
2017-11-13T05:30:42.316Z,94.30
2017-11-13T05:33:10.089Z,94.40
2017-11-13T05:35:37.753Z,94.50
2017-11-13T05:38:05.430Z,94.80
2017-11-13T05:40:33.222Z,94.90
2017-11-13T05:43:01.005Z,94.80
2017-11-13T05:45:28.757Z,94.80
2017-11-13T05:47:56.371Z,94.80
2017-11-13T05:50:24.326Z,94.90
2017-11-13T05:52:52.082Z,94.80
2017-11-13T05:55:19.764Z,94.70
2017-11-13T05:57:47.381Z,94.80
2017-11-13T06:00:15.233Z,95.40
2017-11-13T06:02:43.042Z,95.90
2017-11-13T06:05:11.628Z,95.60
2017-11-13T06:07:39.353Z,95.60
2017-11-13T06:10:07.147Z,95.90
2017-11-13T06:12:36.366Z,95.50
2017-11-13T06:15:04.047Z,95.60
2017-11-13T06:17:32.871Z,95.50
2017-11-13T06:20:00.709Z,95.30
2017-11-13T06:22:29.395Z,95.10
2017-11-13T06:24:57.565Z,94.50
2017-11-13T06:27:25.321Z,94.50
2017-11-13T06:29:53.089Z,94.50
2017-11-13T06:32:21.337Z,94.50
2017-11-13T06:34:49.095Z,94.70
2017-11-13T06:37:17.824Z,94.90
2017-11-13T06:39:46.591Z,94.70
2017-11-13T06:42:15.291Z,94.60
2017-11-13T06:44:43.225Z,94.60
2017-11-13T06:47:11.157Z,94.50
2017-11-13T06:49:38.863Z,94.40
2017-11-13T06:52:06.676Z,94.40
2017-11-13T06:54:34.392Z,94.40
2017-11-13T06:57:02.473Z,94.40
2017-11-13T06:59:30.217Z,94.50
2017-11-13T07:01:57.937Z,94.60
2017-11-13T07:04:26.225Z,94.50
2017-11-13T07:06:54.544Z,94.50
2017-11-13T07:09:22.339Z,94.60
2017-11-13T07:11:50.296Z,94.60
2017-11-13T07:14:18.222Z,94.60
2017-11-13T07:16:47.017Z,94.60
2017-11-13T07:19:15.237Z,94.60
2017-11-13T07:21:43.058Z,94.80
2017-11-13T07:24:12.165Z,95.00
2017-11-13T07:26:39.862Z,94.90
2017-11-13T07:29:07.606Z,94.90
2017-11-13T07:31:35.362Z,94.90
2017-11-13T07:34:04.084Z,94.70
2017-11-13T07:36:31.970Z,94.70
2017-11-13T07:39:01.281Z,94.70
2017-11-13T07:41:28.949Z,94.70
2017-11-13T07:43:56.843Z,94.80
2017-11-13T07:46:24.938Z,94.80
2017-11-13T07:48:52.905Z,94.70
2017-11-13T07:51:20.653Z,94.80
2017-11-13T07:53:48.340Z,94.70
2017-11-13T07:56:16.188Z,94.80
2017-11-13T07:58:47.231Z,94.80
2017-11-13T08:01:15.211Z,94.80
2017-11-13T08:03:43.315Z,94.80
2017-11-13T08:06:11.086Z,94.70
2017-11-13T08:08:38.804Z,94.90
2017-11-13T08:11:06.731Z,94.90
2017-11-13T08:13:35.274Z,94.80
2017-11-13T08:16:03.256Z,94.60
2017-11-13T08:18:30.978Z,94.50
2017-11-13T08:20:58.882Z,94.50
2017-11-13T08:23:27.532Z,94.60
2017-11-13T08:25:56.508Z,94.40
2017-11-13T08:28:24.501Z,94.40
2017-11-13T08:30:58.031Z,94.40
2017-11-13T08:33:25.940Z,94.20
2017-11-13T08:35:53.612Z,94.10
2017-11-13T08:38:21.297Z,94.30
2017-11-13T08:40:51.029Z,94.40
2017-11-13T08:43:18.749Z,94.40
2017-11-13T08:45:48.384Z,94.20
2017-11-13T08:48:16.277Z,94.30
2017-11-13T08:50:44.880Z,93.90
2017-11-13T08:53:18.500Z,93.70
2017-11-13T08:55:46.960Z,93.80
2017-11-13T08:58:14.584Z,93.80
2017-11-13T09:00:42.212Z,93.70
2017-11-13T09:03:10.165Z,93.70
2017-11-13T09:05:37.858Z,93.60
2017-11-13T09:08:05.583Z,93.40
2017-11-13T09:10:33.445Z,93.20
2017-11-13T09:13:01.215Z,93.30
2017-11-13T09:15:28.931Z,93.20
2017-11-13T09:17:56.678Z,92.80
2017-11-13T09:20:24.382Z,92.80
2017-11-13T09:22:52.018Z,92.80
2017-11-13T09:25:19.712Z,92.60
2017-11-13T09:27:47.440Z,92.60
2017-11-13T09:30:15.444Z,92.40
2017-11-13T09:32:44.309Z,92.40
2017-11-13T09:35:12.032Z,92.10
2017-11-13T09:37:39.740Z,91.90
2017-11-13T09:40:07.456Z,92.10
2017-11-13T09:42:35.159Z,92.00
2017-11-13T09:45:02.904Z,91.70
2017-11-13T09:47:30.586Z,91.70
2017-11-13T09:49:58.280Z,91.60
2017-11-13T09:52:26.008Z,91.60
2017-11-13T09:54:53.624Z,91.30
2017-11-13T09:57:21.253Z,91.30
2017-11-13T09:59:49.661Z,91.20
2017-11-13T10:02:17.316Z,91.20
2017-11-13T10:04:44.881Z,91.30
2017-11-13T10:07:12.565Z,91.20
2017-11-13T10:09:40.200Z,91.20
2017-11-13T10:12:07.801Z,90.90
2017-11-13T10:14:35.538Z,90.50
2017-11-13T10:17:03.220Z,90.20
2017-11-13T10:19:30.885Z,90.30
2017-11-13T10:21:58.616Z,90.10
2017-11-13T10:24:26.309Z,90.00
2017-11-13T10:26:54.044Z,89.50
2017-11-13T10:29:22.705Z,89.70
2017-11-13T10:31:50.336Z,89.40
2017-11-13T10:34:17.946Z,89.40
2017-11-13T10:36:45.586Z,89.70
2017-11-13T10:39:13.329Z,89.90
2017-11-13T10:41:41.042Z,89.70
2017-11-13T10:44:08.694Z,89.80
2017-11-13T10:46:37.200Z,89.80
2017-11-13T10:49:04.848Z,89.60
2017-11-13T10:51:33.410Z,89.80
2017-11-13T10:54:01.096Z,89.70
2017-11-13T10:56:29.402Z,90.00
2017-11-13T10:58:57.056Z,90.10
2017-11-13T11:01:25.170Z,89.80
2017-11-13T11:03:52.804Z,89.00
2017-11-13T11:06:20.426Z,88.60
2017-11-13T11:08:48.025Z,88.50
2017-11-13T11:11:15.748Z,88.00
2017-11-13T11:13:44.284Z,87.60
2017-11-13T11:16:12.933Z,87.90
2017-11-13T11:35:09.220Z,86.90
2017-11-13T11:37:51.572Z,87.20
2017-11-13T11:40:19.816Z,87.10
2017-11-13T11:42:47.309Z,87.10
2017-11-13T11:48:25.565Z,87.30
2017-11-13T11:50:53.305Z,87.20
2017-11-13T11:53:21.464Z,86.70
2017-11-13T11:55:50.967Z,86.30
2017-11-13T11:58:18.803Z,86.50
2017-11-13T12:00:47.284Z,86.20
2017-11-13T12:03:15.274Z,86.20
2017-11-13T12:05:43.818Z,86.00
2017-11-13T12:08:11.933Z,85.90
2017-11-13T12:10:39.818Z,84.80
2017-11-13T12:13:07.586Z,84.50
2017-11-13T12:15:36.134Z,83.90
2017-11-13T12:18:03.910Z,82.70
2017-11-13T12:20:31.796Z,82.50
2017-11-13T12:22:59.547Z,82.40
2017-11-13T12:25:27.402Z,81.80
2017-11-13T12:27:55.178Z,82.30
2017-11-13T12:30:23.030Z,81.20
2017-11-13T12:32:50.829Z,80.40
2017-11-13T12:35:18.615Z,80.30
2017-11-13T12:37:46.876Z,78.70
2017-11-13T12:40:15.363Z,78.00
2017-11-13T12:42:43.165Z,78.40
2017-11-13T12:45:11.000Z,77.90
2017-11-13T12:47:38.767Z,78.10
2017-11-13T12:50:06.605Z,77.10
2017-11-13T12:52:34.475Z,76.00
2017-11-13T12:55:02.383Z,76.60
2017-11-13T12:57:30.119Z,77.00
2017-11-13T12:59:58.808Z,77.50
2017-11-13T13:02:26.848Z,77.40
2017-11-13T13:04:54.806Z,76.80
2017-11-13T13:07:22.598Z,76.70
2017-11-13T13:09:50.365Z,77.20
2017-11-13T13:12:18.137Z,76.80
2017-11-13T13:14:46.059Z,77.30
2017-11-13T13:17:13.733Z,76.70
2017-11-13T13:19:41.387Z,76.70
2017-11-13T13:22:09.238Z,76.70
2017-11-13T13:24:38.044Z,76.70
2017-11-13T13:27:05.926Z,77.20
2017-11-13T13:29:34.486Z,76.90
2017-11-13T13:32:02.334Z,76.80
2017-11-13T13:34:30.022Z,77.30
2017-11-13T13:36:57.816Z,78.10
2017-11-13T13:39:25.455Z,78.20
2017-11-13T13:41:53.207Z,78.50
2017-11-13T13:44:20.924Z,78.50
2017-11-13T13:46:48.708Z,77.80
2017-11-13T13:49:17.171Z,77.00
2017-11-13T13:51:44.837Z,77.10
2017-11-13T13:54:12.536Z,75.80
2017-11-13T13:56:40.610Z,76.00
2017-11-13T13:59:08.352Z,76.40
2017-11-13T14:01:36.441Z,75.50
2017-11-13T14:04:04.359Z,75.80
2017-11-13T14:06:32.055Z,75.10
2017-11-13T14:08:59.687Z,75.40
2017-11-13T14:11:27.490Z,75.30
2017-11-13T14:13:55.570Z,75.70
2017-11-13T14:16:27.336Z,76.20
2017-11-13T14:18:56.176Z,76.30
2017-11-13T14:21:24.109Z,76.60
2017-11-13T14:23:52.312Z,76.90
2017-11-13T14:26:20.175Z,76.90
2017-11-13T14:28:48.629Z,76.90
2017-11-13T14:31:18.115Z,77.90
2017-11-13T14:33:46.703Z,77.80
2017-11-13T14:36:15.017Z,77.40
2017-11-13T14:38:44.824Z,77.50
2017-11-13T14:41:13.103Z,77.20
2017-11-13T14:43:41.161Z,77.80
2017-11-13T14:46:09.489Z,76.70
2017-11-13T14:48:37.899Z,76.60
2017-11-13T14:51:06.302Z,77.50
2017-11-13T14:53:37.126Z,77.30
2017-11-13T14:56:07.554Z,77.70
2017-11-13T14:58:36.454Z,77.30
2017-11-13T15:01:05.973Z,77.70
2017-11-13T15:03:34.128Z,77.60
2017-11-13T15:06:02.078Z,77.20
2017-11-13T15:08:30.120Z,77.50
2017-11-13T15:10:58.006Z,78.40
2017-11-13T15:13:25.957Z,78.50
2017-11-13T15:15:53.969Z,79.20
2017-11-13T15:18:22.926Z,79.20
2017-11-13T15:20:51.295Z,79.40
2017-11-13T15:23:19.372Z,79.70
2017-11-13T15:25:48.192Z,80.40
2017-11-13T15:28:16.682Z,80.30
2017-11-13T15:30:44.643Z,80.70
2017-11-13T15:33:12.464Z,81.30
2017-11-13T15:35:41.106Z,81.70
2017-11-13T15:38:09.397Z,82.00
2017-11-13T15:40:38.159Z,82.30
2017-11-13T15:43:06.179Z,82.70
2017-11-13T15:45:34.190Z,82.90
2017-11-13T15:48:02.207Z,83.30
2017-11-13T15:50:30.033Z,83.40
2017-11-13T15:52:57.782Z,82.20
2017-11-13T15:55:25.548Z,82.00
2017-11-13T15:57:53.302Z,81.80
2017-11-13T16:00:21.419Z,81.10
2017-11-13T16:02:49.144Z,80.90
2017-11-13T16:05:17.087Z,80.90
2017-11-13T16:07:44.906Z,80.30
2017-11-13T16:10:12.618Z,80.80
2017-11-13T16:12:40.334Z,80.50
2017-11-13T16:15:07.966Z,80.40
2017-11-13T16:17:35.615Z,80.20
2017-11-13T16:20:03.420Z,80.30
2017-11-13T16:22:31.042Z,80.20
2017-11-13T16:24:59.017Z,80.40
2017-11-13T16:27:26.904Z,80.80
2017-11-13T16:29:54.715Z,81.50
2017-11-13T16:32:22.602Z,81.80
2017-11-13T16:34:50.620Z,81.70
2017-11-13T16:37:18.568Z,81.90
2017-11-13T16:39:48.392Z,82.60
2017-11-13T16:42:17.891Z,82.50
2017-11-13T16:44:46.360Z,82.60
2017-11-13T16:47:14.350Z,83.20
2017-11-13T16:49:43.578Z,83.10
2017-11-13T16:52:13.087Z,83.10
2017-11-13T16:54:41.606Z,83.60
2017-11-13T16:57:09.285Z,83.60
2017-11-13T16:59:37.143Z,84.00
2017-11-13T17:02:05.220Z,84.40
2017-11-13T17:04:33.088Z,84.50
2017-11-13T17:07:00.765Z,84.60
2017-11-13T17:09:28.590Z,85.20
2017-11-13T17:11:56.294Z,85.60
2017-11-13T17:14:24.469Z,85.90
2017-11-13T17:16:52.089Z,86.00
2017-11-13T17:19:19.988Z,86.50
2017-11-13T17:21:48.536Z,86.50
2017-11-13T17:24:16.192Z,86.40
2017-11-13T17:26:43.778Z,86.20
2017-11-13T17:29:11.466Z,86.50
2017-11-13T17:31:39.166Z,86.40
2017-11-13T17:34:06.832Z,86.50
2017-11-13T17:36:34.481Z,86.70
2017-11-13T17:39:02.104Z,86.90
2017-11-13T17:41:29.607Z,87.20
2017-11-13T17:43:57.156Z,87.20
2017-11-13T17:46:24.680Z,87.60
2017-11-13T17:48:52.199Z,88.10
2017-11-13T17:51:19.683Z,87.90
2017-11-13T17:53:47.911Z,87.50
2017-11-13T17:56:15.432Z,87.50
2017-11-13T17:58:42.915Z,87.50
2017-11-13T18:01:10.386Z,87.80
2017-11-13T18:03:37.876Z,88.00
2017-11-13T18:06:05.507Z,88.40
2017-11-13T18:08:33.022Z,88.40
2017-11-13T18:11:00.519Z,88.70
2017-11-13T18:13:27.975Z,89.50
2017-11-13T18:15:55.492Z,89.20
2017-11-13T18:18:23.927Z,88.90
2017-11-13T18:20:51.424Z,88.90
2017-11-13T18:23:19.675Z,89.10
2017-11-13T18:25:47.154Z,89.00
2017-11-13T18:28:14.687Z,89.00
2017-11-13T18:30:42.199Z,89.30
2017-11-13T18:33:09.787Z,89.50
2017-11-13T18:35:37.372Z,89.80
2017-11-13T18:38:04.858Z,89.90
2017-11-13T18:40:32.356Z,90.00
2017-11-13T18:42:59.928Z,90.00
2017-11-13T18:45:27.417Z,90.40
2017-11-13T18:47:54.893Z,90.50
2017-11-13T18:50:22.452Z,90.60
2017-11-13T18:52:49.968Z,90.70
2017-11-13T18:55:17.450Z,90.80
2017-11-13T18:57:45.106Z,90.80
2017-11-13T19:00:12.679Z,91.00
2017-11-13T19:02:40.146Z,91.00
2017-11-13T19:05:07.680Z,91.00
2017-11-13T19:07:35.197Z,91.10
2017-11-13T19:10:02.704Z,91.20
2017-11-13T19:12:30.727Z,91.30
2017-11-13T19:14:58.246Z,91.40
2017-11-13T19:17:25.787Z,91.50
2017-11-13T19:19:53.251Z,91.50
2017-11-13T19:22:20.832Z,91.60
2017-11-13T19:24:48.884Z,91.60
2017-11-13T19:27:16.341Z,91.60
2017-11-13T19:29:43.800Z,91.60
2017-11-13T19:32:11.276Z,91.60
2017-11-13T19:34:38.791Z,91.70
2017-11-13T19:37:06.279Z,91.70
2017-11-13T19:39:33.815Z,91.70
2017-11-13T19:42:01.443Z,91.80
2017-11-13T19:44:28.923Z,91.70
2017-11-13T19:46:56.399Z,91.70
2017-11-13T19:49:23.960Z,91.60
2017-11-13T19:51:51.510Z,91.60
2017-11-13T19:54:18.983Z,91.60
2017-11-13T19:56:46.499Z,91.60
2017-11-13T19:59:14.007Z,91.70
2017-11-13T20:01:41.512Z,91.70
2017-11-13T20:04:09.022Z,91.70
2017-11-13T20:06:36.559Z,91.80
2017-11-13T20:09:04.149Z,91.70
2017-11-13T20:11:31.679Z,91.80
2017-11-13T20:13:59.143Z,91.80
2017-11-13T20:16:26.699Z,91.80
2017-11-13T20:18:56.174Z,91.90
2017-11-13T20:21:23.663Z,91.90
2017-11-13T20:23:51.172Z,91.90
2017-11-13T20:26:18.651Z,91.90
2017-11-13T20:28:46.644Z,91.90
2017-11-13T20:31:14.560Z,92.00
2017-11-13T20:33:42.085Z,92.10
2017-11-13T20:36:09.690Z,92.20
2017-11-13T20:38:37.206Z,92.20
2017-11-13T20:41:07.352Z,92.20
2017-11-13T20:43:34.878Z,92.10
2017-11-13T20:46:07.188Z,92.10
2017-11-13T21:16:12.460Z,92.50
2017-11-13T21:18:40.072Z,92.50
2017-11-13T21:21:07.687Z,92.70
2017-11-13T21:23:35.215Z,92.70
2017-11-13T21:26:02.812Z,92.70
2017-11-13T21:28:30.356Z,92.70
2017-11-13T21:30:57.920Z,92.70
2017-11-13T21:33:25.494Z,92.60
2017-11-13T21:35:53.004Z,92.60
2017-11-13T21:38:20.481Z,92.60
2017-11-13T21:40:47.967Z,92.60
2017-11-13T21:43:15.454Z,92.50
2017-11-13T21:45:43.008Z,92.50
2017-11-13T21:48:10.515Z,92.60
2017-11-13T21:50:38.766Z,92.50
2017-11-13T21:53:06.310Z,92.50
2017-11-13T21:55:33.822Z,92.50
2017-11-13T21:58:01.371Z,92.50
2017-11-13T22:00:28.932Z,92.50
2017-11-13T22:02:56.490Z,92.50
2017-11-13T22:05:24.000Z,92.50
2017-11-13T22:07:51.541Z,92.50
2017-11-13T22:10:19.044Z,92.50
2017-11-13T22:12:46.563Z,92.50
2017-11-13T22:15:14.086Z,92.60
2017-11-13T22:17:41.632Z,92.70
2017-11-13T22:20:09.177Z,92.70
2017-11-13T22:22:36.659Z,92.80
2017-11-13T22:25:04.936Z,92.50
2017-11-13T22:27:33.202Z,92.40
2017-11-13T22:30:00.728Z,92.30
2017-11-13T22:32:28.332Z,92.20
2017-11-13T22:34:55.876Z,92.20
2017-11-13T22:37:23.862Z,92.10
2017-11-13T22:39:51.308Z,92.00
2017-11-13T22:42:18.855Z,92.20
2017-11-13T22:44:46.321Z,92.30
2017-11-13T22:47:13.874Z,92.40
2017-11-13T22:49:41.452Z,92.40
2017-11-13T22:52:08.996Z,92.50
2017-11-13T22:54:36.564Z,92.60
2017-11-13T22:57:04.841Z,92.60
2017-11-13T22:59:32.359Z,92.60
2017-11-13T23:01:59.844Z,92.60
2017-11-13T23:04:27.346Z,92.60
2017-11-13T23:06:54.827Z,92.60
2017-11-13T23:09:22.445Z,92.50
2017-11-13T23:11:50.029Z,92.60
2017-11-13T23:14:17.555Z,92.60
2017-11-13T23:16:45.103Z,92.70
2017-11-13T23:19:12.619Z,92.80
2017-11-13T23:21:40.127Z,92.90
2017-11-13T23:24:07.697Z,92.80
2017-11-13T23:26:35.225Z,92.80
2017-11-13T23:29:02.687Z,92.80
2017-11-13T23:31:30.169Z,92.70
2017-11-13T23:33:57.688Z,92.70
2017-11-13T23:36:25.171Z,92.50
2017-11-13T23:38:52.640Z,92.40
2017-11-13T23:41:20.206Z,92.40
2017-11-13T23:43:47.731Z,92.40
2017-11-13T23:46:15.308Z,92.40
2017-11-13T23:48:42.852Z,92.40
2017-11-13T23:51:10.323Z,92.40
2017-11-13T23:53:37.837Z,92.40
2017-11-13T23:56:05.312Z,92.50
2017-11-13T23:58:32.801Z,92.50
